Terminal Aerodrome Forecast
Issued by NWS Shreveport, LA

Home | Current Version | Previous Version | Text Only | Print | Product List | Glossary On
Versions: 1 2 3 4 5 6 7 8 9 10 11 12 13 14 15 16 17 18 19
000
FTUS44 KSHV 271700
TAFSHV
TAF
KSHV 271724Z 2718/2818 14006KT 4SM BR VCSH BKN004 OVC010
      TEMPO 2718/2720 1 1/2SM SHRA BR OVC004
     FM272000 34010KT P6SM VCSH OVC014
     FM280100 35012G20KT 4SM -RA BR BKN007 OVC015
     FM280600 32010KT 4SM -RA BR OVC004
     FM281500 34007KT 6SM -RA OVC015=

USA.gov is the U.S. government's official web portal to all federal, state and local government web resources and services.